sensor_id;sensor_type;location;lat;lon;timestamp;P1;durP1;ratioP1;P2;durP2;ratioP2
70414;SDS011;57837;52.064;113.478;2023-02-15T00:00:46;72.60;;;39.93;;
70414;SDS011;57837;52.064;113.478;2023-02-15T00:03:50;133.10;;;56.13;;
70414;SDS011;57837;52.064;113.478;2023-02-15T00:06:54;184.00;;;67.43;;
70414;SDS011;57837;52.064;113.478;2023-02-15T00:09:58;93.55;;;37.53;;
70414;SDS011;57837;52.064;113.478;2023-02-15T00:13:02;104.90;;;50.38;;
70414;SDS011;57837;52.064;113.478;2023-02-15T00:16:07;148.05;;;63.50;;
70414;SDS011;57837;52.064;113.478;2023-02-15T00:19:14;209.07;;;84.15;;
70414;SDS011;57837;52.064;113.478;2023-02-15T00:22:19;142.87;;;66.47;;
70414;SDS011;57837;52.064;113.478;2023-02-15T00:25:23;58.95;;;34.63;;
70414;SDS011;57837;52.064;113.478;2023-02-15T00:28:26;134.95;;;68.45;;
70414;SDS011;57837;52.064;113.478;2023-02-15T00:31:30;192.07;;;83.53;;
70414;SDS011;57837;52.064;113.478;2023-02-15T00:34:36;54.47;;;31.92;;
70414;SDS011;57837;52.064;113.478;2023-02-15T00:37:40;74.90;;;37.78;;
70414;SDS011;57837;52.064;113.478;2023-02-15T00:40:43;184.65;;;73.57;;
70414;SDS011;57837;52.064;113.478;2023-02-15T00:43:47;133.68;;;60.70;;
70414;SDS011;57837;52.064;113.478;2023-02-15T00:46:50;117.30;;;62.92;;
70414;SDS011;57837;52.064;113.478;2023-02-15T00:49:54;99.80;;;48.88;;
70414;SDS011;57837;52.064;113.478;2023-02-15T00:52:57;113.13;;;52.80;;
70414;SDS011;57837;52.064;113.478;2023-02-15T00:56:01;81.05;;;41.80;;
70414;SDS011;57837;52.064;113.478;2023-02-15T00:59:04;119.40;;;51.15;;
70414;SDS011;57837;52.064;113.478;2023-02-15T01:02:07;73.90;;;38.90;;
70414;SDS011;57837;52.064;113.478;2023-02-15T01:05:11;82.95;;;40.03;;
70414;SDS011;57837;52.064;113.478;2023-02-15T01:08:17;159.50;;;53.38;;
70414;SDS011;57837;52.064;113.478;2023-02-15T01:11:21;104.28;;;44.65;;
70414;SDS011;57837;52.064;113.478;2023-02-15T01:14:25;131.98;;;59.47;;
70414;SDS011;57837;52.064;113.478;2023-02-15T01:17:28;116.53;;;51.80;;
70414;SDS011;57837;52.064;113.478;2023-02-15T01:20:34;137.68;;;54.08;;
70414;SDS011;57837;52.064;113.478;2023-02-15T01:23:41;103.03;;;50.97;;
70414;SDS011;57837;52.064;113.478;2023-02-15T01:26:46;186.85;;;79.45;;
70414;SDS011;57837;52.064;113.478;2023-02-15T01:29:50;108.78;;;48.72;;
70414;SDS011;57837;52.064;113.478;2023-02-15T01:32:56;152.13;;;68.27;;
70414;SDS011;57837;52.064;113.478;2023-02-15T01:36:00;236.98;;;102.50;;
70414;SDS011;57837;52.064;113.478;2023-02-15T01:39:06;158.38;;;70.18;;
70414;SDS011;57837;52.064;113.478;2023-02-15T01:42:10;119.22;;;61.22;;
70414;SDS011;57837;52.064;113.478;2023-02-15T01:48:28;209.65;;;88.85;;
70414;SDS011;57837;52.064;113.478;2023-02-15T01:51:32;189.93;;;74.53;;
70414;SDS011;57837;52.064;113.478;2023-02-15T01:54:39;201.90;;;68.67;;
70414;SDS011;57837;52.064;113.478;2023-02-15T01:57:45;165.02;;;70.47;;
70414;SDS011;57837;52.064;113.478;2023-02-15T02:00:49;198.05;;;78.18;;
70414;SDS011;57837;52.064;113.478;2023-02-15T02:04:02;204.77;;;77.90;;
70414;SDS011;57837;52.064;113.478;2023-02-15T02:07:07;122.65;;;56.70;;
70414;SDS011;57837;52.064;113.478;2023-02-15T02:10:14;163.75;;;64.32;;
70414;SDS011;57837;52.064;113.478;2023-02-15T02:13:18;276.02;;;112.05;;
70414;SDS011;57837;52.064;113.478;2023-02-15T02:16:46;299.00;;;121.00;;
70414;SDS011;57837;52.064;113.478;2023-02-15T02:44:00;226.48;;;87.93;;
70414;SDS011;57837;52.064;113.478;2023-02-15T02:47:23;234.95;;;89.13;;
70414;SDS011;57837;52.064;113.478;2023-02-15T02:50:31;139.57;;;49.28;;
70414;SDS011;57837;52.064;113.478;2023-02-15T02:53:35;141.40;;;51.53;;
70414;SDS011;57837;52.064;113.478;2023-02-15T02:56:40;73.45;;;27.67;;
70414;SDS011;57837;52.064;113.478;2023-02-15T02:59:50;46.37;;;17.83;;
70414;SDS011;57837;52.064;113.478;2023-02-15T03:03:06;66.00;;;26.40;;
70414;SDS011;57837;52.064;113.478;2023-02-15T03:06:39;112.90;;;40.75;;
70414;SDS011;57837;52.064;113.478;2023-02-15T03:09:51;87.60;;;32.67;;
70414;SDS011;57837;52.064;113.478;2023-02-15T03:12:57;78.70;;;29.77;;
70414;SDS011;57837;52.064;113.478;2023-02-15T03:16:01;76.35;;;29.23;;
70414;SDS011;57837;52.064;113.478;2023-02-15T03:19:35;65.13;;;23.92;;
70414;SDS011;57837;52.064;113.478;2023-02-15T03:22:43;83.53;;;30.85;;
70414;SDS011;57837;52.064;113.478;2023-02-15T03:26:05;88.78;;;33.85;;
70414;SDS011;57837;52.064;113.478;2023-02-15T03:29:11;51.85;;;22.58;;
70414;SDS011;57837;52.064;113.478;2023-02-15T03:32:16;54.00;;;20.80;;
70414;SDS011;57837;52.064;113.478;2023-02-15T03:35:21;67.57;;;24.15;;
70414;SDS011;57837;52.064;113.478;2023-02-15T03:38:39;37.10;;;13.05;;
70414;SDS011;57837;52.064;113.478;2023-02-15T03:45:15;57.85;;;22.30;;
70414;SDS011;57837;52.064;113.478;2023-02-15T03:48:29;82.93;;;31.00;;
70414;SDS011;57837;52.064;113.478;2023-02-15T03:51:37;77.53;;;26.70;;
70414;SDS011;57837;52.064;113.478;2023-02-15T03:54:43;87.85;;;30.17;;
70414;SDS011;57837;52.064;113.478;2023-02-15T03:57:49;106.78;;;38.17;;
70414;SDS011;57837;52.064;113.478;2023-02-15T04:04:47;102.73;;;37.00;;
70414;SDS011;57837;52.064;113.478;2023-02-15T04:07:51;105.03;;;34.95;;
70414;SDS011;57837;52.064;113.478;2023-02-15T04:10:54;106.72;;;36.17;;
70414;SDS011;57837;52.064;113.478;2023-02-15T04:14:00;117.40;;;43.93;;
70414;SDS011;57837;52.064;113.478;2023-02-15T04:17:23;95.32;;;33.70;;
70414;SDS011;57837;52.064;113.478;2023-02-15T04:20:26;99.65;;;35.78;;
70414;SDS011;57837;52.064;113.478;2023-02-15T04:23:47;94.82;;;33.58;;
70414;SDS011;57837;52.064;113.478;2023-02-15T04:27:09;78.63;;;25.58;;
70414;SDS011;57837;52.064;113.478;2023-02-15T04:30:12;91.47;;;33.60;;
70414;SDS011;57837;52.064;113.478;2023-02-15T04:33:17;77.55;;;29.55;;
70414;SDS011;57837;52.064;113.478;2023-02-15T04:36:19;88.27;;;29.13;;
70414;SDS011;57837;52.064;113.478;2023-02-15T04:39:23;76.60;;;29.50;;
70414;SDS011;57837;52.064;113.478;2023-02-15T04:42:26;74.32;;;27.65;;
70414;SDS011;57837;52.064;113.478;2023-02-15T04:45:29;90.43;;;29.23;;
70414;SDS011;57837;52.064;113.478;2023-02-15T04:48:32;70.88;;;26.55;;
70414;SDS011;57837;52.064;113.478;2023-02-15T04:51:36;71.90;;;25.27;;
70414;SDS011;57837;52.064;113.478;2023-02-15T04:54:40;64.30;;;24.50;;
70414;SDS011;57837;52.064;113.478;2023-02-15T04:57:43;71.43;;;26.80;;
70414;SDS011;57837;52.064;113.478;2023-02-15T05:00:48;69.68;;;26.15;;
70414;SDS011;57837;52.064;113.478;2023-02-15T05:03:52;79.18;;;29.40;;
70414;SDS011;57837;52.064;113.478;2023-02-15T05:06:55;73.57;;;26.33;;
70414;SDS011;57837;52.064;113.478;2023-02-15T05:09:59;73.15;;;28.23;;
70414;SDS011;57837;52.064;113.478;2023-02-15T05:13:03;86.55;;;30.02;;
70414;SDS011;57837;52.064;113.478;2023-02-15T05:16:06;84.70;;;31.00;;
70414;SDS011;57837;52.064;113.478;2023-02-15T05:19:10;90.07;;;32.50;;
70414;SDS011;57837;52.064;113.478;2023-02-15T05:22:13;90.85;;;31.35;;
70414;SDS011;57837;52.064;113.478;2023-02-15T05:25:16;81.90;;;26.20;;
70414;SDS011;57837;52.064;113.478;2023-02-15T05:28:38;83.65;;;31.23;;
70414;SDS011;57837;52.064;113.478;2023-02-15T05:31:43;90.18;;;30.63;;
70414;SDS011;57837;52.064;113.478;2023-02-15T05:34:50;87.60;;;30.85;;
70414;SDS011;57837;52.064;113.478;2023-02-15T05:37:54;67.53;;;23.80;;
70414;SDS011;57837;52.064;113.478;2023-02-15T05:40:57;77.15;;;28.35;;
70414;SDS011;57837;52.064;113.478;2023-02-15T05:44:01;76.63;;;27.63;;
70414;SDS011;57837;52.064;113.478;2023-02-15T05:47:04;63.50;;;25.47;;
70414;SDS011;57837;52.064;113.478;2023-02-15T05:50:09;84.18;;;27.45;;
70414;SDS011;57837;52.064;113.478;2023-02-15T05:53:14;76.32;;;28.60;;
70414;SDS011;57837;52.064;113.478;2023-02-15T05:56:17;63.13;;;23.42;;
70414;SDS011;57837;52.064;113.478;2023-02-15T05:59:21;67.30;;;23.90;;
70414;SDS011;57837;52.064;113.478;2023-02-15T06:02:25;64.50;;;22.02;;
70414;SDS011;57837;52.064;113.478;2023-02-15T06:05:29;65.25;;;23.95;;
70414;SDS011;57837;52.064;113.478;2023-02-15T06:08:32;61.00;;;18.40;;
70414;SDS011;57837;52.064;113.478;2023-02-15T06:11:36;57.25;;;19.17;;
70414;SDS011;57837;52.064;113.478;2023-02-15T06:14:40;45.33;;;17.98;;
70414;SDS011;57837;52.064;113.478;2023-02-15T06:17:43;44.55;;;17.33;;
70414;SDS011;57837;52.064;113.478;2023-02-15T06:20:46;39.50;;;14.77;;
70414;SDS011;57837;52.064;113.478;2023-02-15T06:23:51;36.50;;;14.43;;
70414;SDS011;57837;52.064;113.478;2023-02-15T06:26:55;33.13;;;13.38;;
70414;SDS011;57837;52.064;113.478;2023-02-15T06:29:59;36.58;;;13.30;;
70414;SDS011;57837;52.064;113.478;2023-02-15T06:33:02;33.33;;;13.00;;
70414;SDS011;57837;52.064;113.478;2023-02-15T06:36:06;27.58;;;9.93;;
70414;SDS011;57837;52.064;113.478;2023-02-15T06:39:10;21.90;;;9.00;;
70414;SDS011;57837;52.064;113.478;2023-02-15T06:42:14;20.65;;;7.47;;
70414;SDS011;57837;52.064;113.478;2023-02-15T06:45:18;20.17;;;7.82;;
70414;SDS011;57837;52.064;113.478;2023-02-15T06:48:22;27.35;;;9.45;;
70414;SDS011;57837;52.064;113.478;2023-02-15T06:51:25;21.65;;;7.78;;
70414;SDS011;57837;52.064;113.478;2023-02-15T06:54:28;20.23;;;6.73;;
70414;SDS011;57837;52.064;113.478;2023-02-15T06:57:32;22.58;;;7.72;;
70414;SDS011;57837;52.064;113.478;2023-02-15T07:00:36;15.50;;;6.88;;
70414;SDS011;57837;52.064;113.478;2023-02-15T07:03:40;12.75;;;5.00;;
70414;SDS011;57837;52.064;113.478;2023-02-15T07:06:43;14.77;;;5.37;;
70414;SDS011;57837;52.064;113.478;2023-02-15T07:09:47;13.52;;;5.72;;
70414;SDS011;57837;52.064;113.478;2023-02-15T07:12:50;15.52;;;6.10;;
70414;SDS011;57837;52.064;113.478;2023-02-15T07:15:54;13.57;;;6.55;;
70414;SDS011;57837;52.064;113.478;2023-02-15T07:18:57;14.18;;;5.97;;
70414;SDS011;57837;52.064;113.478;2023-02-15T07:22:01;21.35;;;5.63;;
70414;SDS011;57837;52.064;113.478;2023-02-15T07:25:07;17.45;;;7.10;;
70414;SDS011;57837;52.064;113.478;2023-02-15T07:28:11;28.83;;;11.90;;
70414;SDS011;57837;52.064;113.478;2023-02-15T07:31:15;34.70;;;12.38;;
70414;SDS011;57837;52.064;113.478;2023-02-15T07:34:18;30.50;;;12.85;;
70414;SDS011;57837;52.064;113.478;2023-02-15T07:37:21;19.13;;;7.90;;
70414;SDS011;57837;52.064;113.478;2023-02-15T07:40:25;16.10;;;6.03;;
70414;SDS011;57837;52.064;113.478;2023-02-15T07:43:28;16.58;;;6.97;;
70414;SDS011;57837;52.064;113.478;2023-02-15T07:46:32;21.05;;;7.82;;
70414;SDS011;57837;52.064;113.478;2023-02-15T07:49:36;19.70;;;8.07;;
70414;SDS011;57837;52.064;113.478;2023-02-15T07:52:40;21.67;;;8.07;;
70414;SDS011;57837;52.064;113.478;2023-02-15T07:55:44;24.63;;;8.10;;
70414;SDS011;57837;52.064;113.478;2023-02-15T07:58:48;24.85;;;7.63;;
70414;SDS011;57837;52.064;113.478;2023-02-15T08:01:54;21.60;;;7.37;;
70414;SDS011;57837;52.064;113.478;2023-02-15T08:04:58;17.15;;;7.30;;
70414;SDS011;57837;52.064;113.478;2023-02-15T08:08:02;21.45;;;7.22;;
70414;SDS011;57837;52.064;113.478;2023-02-15T08:11:31;22.38;;;8.70;;
70414;SDS011;57837;52.064;113.478;2023-02-15T08:14:39;21.20;;;7.80;;
70414;SDS011;57837;52.064;113.478;2023-02-15T08:17:43;23.75;;;10.20;;
70414;SDS011;57837;52.064;113.478;2023-02-15T08:20:49;37.53;;;14.55;;
70414;SDS011;57837;52.064;113.478;2023-02-15T08:23:55;41.78;;;14.45;;
70414;SDS011;57837;52.064;113.478;2023-02-15T08:26:58;40.93;;;14.63;;
70414;SDS011;57837;52.064;113.478;2023-02-15T08:30:02;34.88;;;13.27;;
70414;SDS011;57837;52.064;113.478;2023-02-15T08:33:06;37.50;;;11.25;;
70414;SDS011;57837;52.064;113.478;2023-02-15T08:36:14;35.90;;;11.65;;
70414;SDS011;57837;52.064;113.478;2023-02-15T08:39:20;43.50;;;15.23;;
70414;SDS011;57837;52.064;113.478;2023-02-15T08:42:25;55.63;;;20.00;;
70414;SDS011;57837;52.064;113.478;2023-02-15T08:45:29;68.10;;;22.75;;
70414;SDS011;57837;52.064;113.478;2023-02-15T08:48:32;47.75;;;17.75;;
70414;SDS011;57837;52.064;113.478;2023-02-15T08:51:37;89.63;;;32.37;;
70414;SDS011;57837;52.064;113.478;2023-02-15T08:54:41;94.43;;;37.30;;
70414;SDS011;57837;52.064;113.478;2023-02-15T08:57:45;120.93;;;46.08;;
70414;SDS011;57837;52.064;113.478;2023-02-15T09:00:50;59.15;;;20.20;;
70414;SDS011;57837;52.064;113.478;2023-02-15T09:03:55;59.15;;;22.33;;
70414;SDS011;57837;52.064;113.478;2023-02-15T09:07:03;57.78;;;22.42;;
70414;SDS011;57837;52.064;113.478;2023-02-15T09:10:07;42.53;;;17.05;;
70414;SDS011;57837;52.064;113.478;2023-02-15T09:13:11;52.87;;;20.50;;
70414;SDS011;57837;52.064;113.478;2023-02-15T09:16:15;94.97;;;39.92;;
70414;SDS011;57837;52.064;113.478;2023-02-15T09:19:22;77.50;;;31.67;;
70414;SDS011;57837;52.064;113.478;2023-02-15T09:22:25;77.55;;;33.08;;
70414;SDS011;57837;52.064;113.478;2023-02-15T09:25:29;65.30;;;27.93;;
70414;SDS011;57837;52.064;113.478;2023-02-15T09:28:33;47.20;;;21.02;;
70414;SDS011;57837;52.064;113.478;2023-02-15T09:31:38;40.70;;;15.85;;
70414;SDS011;57837;52.064;113.478;2023-02-15T09:34:43;53.22;;;22.35;;
70414;SDS011;57837;52.064;113.478;2023-02-15T09:37:47;71.78;;;26.08;;
70414;SDS011;57837;52.064;113.478;2023-02-15T09:40:55;51.78;;;20.63;;
70414;SDS011;57837;52.064;113.478;2023-02-15T09:51:35;77.70;;;28.80;;
70414;SDS011;57837;52.064;113.478;2023-02-15T09:54:46;118.85;;;43.97;;
70414;SDS011;57837;52.064;113.478;2023-02-15T10:02:01;96.45;;;35.75;;
70414;SDS011;57837;52.064;113.478;2023-02-15T10:05:46;70.72;;;26.67;;
70414;SDS011;57837;52.064;113.478;2023-02-15T10:09:17;111.10;;;41.28;;
70414;SDS011;57837;52.064;113.478;2023-02-15T10:13:21;89.40;;;31.77;;
70414;SDS011;57837;52.064;113.478;2023-02-15T10:26:54;98.10;;;39.22;;
70414;SDS011;57837;52.064;113.478;2023-02-15T10:30:13;122.25;;;46.58;;
70414;SDS011;57837;52.064;113.478;2023-02-15T10:36:41;120.50;;;46.20;;
70414;SDS011;57837;52.064;113.478;2023-02-15T10:54:00;124.72;;;44.03;;
70414;SDS011;57837;52.064;113.478;2023-02-15T11:07:24;272.95;;;95.45;;
70414;SDS011;57837;52.064;113.478;2023-02-15T11:13:52;172.93;;;61.72;;
70414;SDS011;57837;52.064;113.478;2023-02-15T11:17:02;146.60;;;52.58;;
70414;SDS011;57837;52.064;113.478;2023-02-15T11:20:30;140.77;;;44.27;;
70414;SDS011;57837;52.064;113.478;2023-02-15T11:23:36;120.00;;;42.85;;
70414;SDS011;57837;52.064;113.478;2023-02-15T11:27:45;124.03;;;43.85;;
70414;SDS011;57837;52.064;113.478;2023-02-15T11:30:20;138.40;;;46.40;;
70414;SDS011;57837;52.064;113.478;2023-02-15T11:33:33;144.70;;;47.25;;
70414;SDS011;57837;52.064;113.478;2023-02-15T11:36:40;138.07;;;46.10;;
70414;SDS011;57837;52.064;113.478;2023-02-15T11:39:46;107.50;;;40.00;;
70414;SDS011;57837;52.064;113.478;2023-02-15T11:42:58;94.60;;;35.33;;
70414;SDS011;57837;52.064;113.478;2023-02-15T11:46:08;78.05;;;32.10;;
70414;SDS011;57837;52.064;113.478;2023-02-15T11:49:33;92.18;;;34.78;;
70414;SDS011;57837;52.064;113.478;2023-02-15T11:52:37;98.27;;;34.10;;
70414;SDS011;57837;52.064;113.478;2023-02-15T11:55:45;97.05;;;35.75;;
70414;SDS011;57837;52.064;113.478;2023-02-15T12:02:12;135.40;;;48.43;;
70414;SDS011;57837;52.064;113.478;2023-02-15T12:05:23;164.88;;;56.28;;
70414;SDS011;57837;52.064;113.478;2023-02-15T12:08:30;142.95;;;52.17;;
70414;SDS011;57837;52.064;113.478;2023-02-15T12:11:41;161.95;;;54.10;;
70414;SDS011;57837;52.064;113.478;2023-02-15T12:14:48;156.63;;;53.28;;
70414;SDS011;57837;52.064;113.478;2023-02-15T12:17:54;128.82;;;45.75;;
70414;SDS011;57837;52.064;113.478;2023-02-15T12:21:02;163.80;;;56.85;;
70414;SDS011;57837;52.064;113.478;2023-02-15T12:24:38;132.73;;;47.40;;
70414;SDS011;57837;52.064;113.478;2023-02-15T12:27:48;177.82;;;65.28;;
70414;SDS011;57837;52.064;113.478;2023-02-15T12:30:52;205.52;;;75.85;;
70414;SDS011;57837;52.064;113.478;2023-02-15T12:33:59;187.17;;;69.33;;
70414;SDS011;57837;52.064;113.478;2023-02-15T12:37:23;266.05;;;103.18;;
70414;SDS011;57837;52.064;113.478;2023-02-15T12:40:33;229.38;;;92.45;;
70414;SDS011;57837;52.064;113.478;2023-02-15T12:43:38;296.15;;;107.40;;
70414;SDS011;57837;52.064;113.478;2023-02-15T12:46:41;270.50;;;102.00;;
70414;SDS011;57837;52.064;113.478;2023-02-15T12:50:08;289.20;;;107.75;;
70414;SDS011;57837;52.064;113.478;2023-02-15T12:53:31;246.68;;;90.10;;
70414;SDS011;57837;52.064;113.478;2023-02-15T12:56:37;247.20;;;88.77;;
70414;SDS011;57837;52.064;113.478;2023-02-15T12:59:47;194.40;;;76.82;;
70414;SDS011;57837;52.064;113.478;2023-02-15T13:02:57;248.45;;;93.38;;
70414;SDS011;57837;52.064;113.478;2023-02-15T13:06:04;249.73;;;92.87;;
70414;SDS011;57837;52.064;113.478;2023-02-15T13:09:18;203.32;;;86.40;;
70414;SDS011;57837;52.064;113.478;2023-02-15T13:12:27;179.07;;;70.93;;
70414;SDS011;57837;52.064;113.478;2023-02-15T13:15:37;165.77;;;66.18;;
70414;SDS011;57837;52.064;113.478;2023-02-15T13:18:50;178.48;;;70.55;;
70414;SDS011;57837;52.064;113.478;2023-02-15T13:21:54;223.20;;;77.97;;
70414;SDS011;57837;52.064;113.478;2023-02-15T13:25:01;185.45;;;70.60;;
70414;SDS011;57837;52.064;113.478;2023-02-15T13:28:14;223.63;;;85.27;;
70414;SDS011;57837;52.064;113.478;2023-02-15T13:31:23;236.07;;;90.13;;
70414;SDS011;57837;52.064;113.478;2023-02-15T13:34:33;226.48;;;87.18;;
70414;SDS011;57837;52.064;113.478;2023-02-15T13:41:27;242.00;;;89.88;;
70414;SDS011;57837;52.064;113.478;2023-02-15T13:56:26;193.13;;;74.57;;
70414;SDS011;57837;52.064;113.478;2023-02-15T13:59:32;320.90;;;119.40;;
70414;SDS011;57837;52.064;113.478;2023-02-15T14:03:05;303.50;;;113.00;;
70414;SDS011;57837;52.064;113.478;2023-02-15T14:06:28;367.55;;;124.82;;
70414;SDS011;57837;52.064;113.478;2023-02-15T14:09:55;273.48;;;111.18;;
70414;SDS011;57837;52.064;113.478;2023-02-15T14:16:36;238.95;;;106.50;;
70414;SDS011;57837;52.064;113.478;2023-02-15T14:23:03;238.13;;;103.65;;
70414;SDS011;57837;52.064;113.478;2023-02-15T14:26:39;482.27;;;189.93;;
70414;SDS011;57837;52.064;113.478;2023-02-15T14:36:18;332.50;;;126.60;;
70414;SDS011;57837;52.064;113.478;2023-02-15T14:39:36;269.92;;;104.13;;
70414;SDS011;57837;52.064;113.478;2023-02-15T14:46:48;336.67;;;125.23;;
70414;SDS011;57837;52.064;113.478;2023-02-15T14:49:49;261.00;;;105.57;;
70414;SDS011;57837;52.064;113.478;2023-02-15T14:56:26;203.65;;;91.45;;
70414;SDS011;57837;52.064;113.478;2023-02-15T15:02:49;238.38;;;98.68;;
70414;SDS011;57837;52.064;113.478;2023-02-15T15:05:55;205.63;;;80.88;;
70414;SDS011;57837;52.064;113.478;2023-02-15T15:09:19;317.53;;;113.83;;
70414;SDS011;57837;52.064;113.478;2023-02-15T15:15:45;278.10;;;111.72;;
70414;SDS011;57837;52.064;113.478;2023-02-15T15:18:49;268.77;;;104.03;;
70414;SDS011;57837;52.064;113.478;2023-02-15T15:21:52;364.55;;;137.35;;
70414;SDS011;57837;52.064;113.478;2023-02-15T15:25:01;536.60;;;212.68;;
70414;SDS011;57837;52.064;113.478;2023-02-15T15:31:40;462.35;;;181.35;;
70414;SDS011;57837;52.064;113.478;2023-02-15T15:48:45;475.67;;;187.85;;
70414;SDS011;57837;52.064;113.478;2023-02-15T15:51:49;345.57;;;140.83;;
70414;SDS011;57837;52.064;113.478;2023-02-15T15:54:57;349.00;;;136.63;;
70414;SDS011;57837;52.064;113.478;2023-02-15T15:58:08;382.92;;;157.35;;
70414;SDS011;57837;52.064;113.478;2023-02-15T16:01:24;477.00;;;181.45;;
70414;SDS011;57837;52.064;113.478;2023-02-15T16:04:31;152.32;;;57.20;;
70414;SDS011;57837;52.064;113.478;2023-02-15T16:07:36;102.45;;;45.63;;
70414;SDS011;57837;52.064;113.478;2023-02-15T16:10:42;139.30;;;55.47;;
70414;SDS011;57837;52.064;113.478;2023-02-15T16:13:46;240.27;;;83.00;;
70414;SDS011;57837;52.064;113.478;2023-02-15T16:16:51;244.30;;;92.97;;
70414;SDS011;57837;52.064;113.478;2023-02-15T16:20:00;257.08;;;94.90;;
70414;SDS011;57837;52.064;113.478;2023-02-15T16:23:12;56.70;;;32.13;;
70414;SDS011;57837;52.064;113.478;2023-02-15T16:26:31;163.70;;;64.32;;
70414;SDS011;57837;52.064;113.478;2023-02-15T16:29:53;108.43;;;46.38;;
70414;SDS011;57837;52.064;113.478;2023-02-15T16:33:09;102.45;;;42.17;;
70414;SDS011;57837;52.064;113.478;2023-02-15T16:36:25;63.38;;;26.98;;
70414;SDS011;57837;52.064;113.478;2023-02-15T16:39:30;107.05;;;38.17;;
70414;SDS011;57837;52.064;113.478;2023-02-15T16:42:43;79.03;;;24.30;;
70414;SDS011;57837;52.064;113.478;2023-02-15T16:45:46;75.20;;;25.27;;
70414;SDS011;57837;52.064;113.478;2023-02-15T16:48:50;67.63;;;26.83;;
70414;SDS011;57837;52.064;113.478;2023-02-15T16:52:02;67.55;;;15.93;;
70414;SDS011;57837;52.064;113.478;2023-02-15T16:55:17;64.03;;;22.13;;
70414;SDS011;57837;52.064;113.478;2023-02-15T16:58:28;90.43;;;30.60;;
70414;SDS011;57837;52.064;113.478;2023-02-15T17:01:40;107.13;;;43.75;;
70414;SDS011;57837;52.064;113.478;2023-02-15T17:11:40;184.60;;;71.65;;
70414;SDS011;57837;52.064;113.478;2023-02-15T17:14:44;152.18;;;56.38;;
70414;SDS011;57837;52.064;113.478;2023-02-15T17:17:47;223.80;;;88.33;;
70414;SDS011;57837;52.064;113.478;2023-02-15T17:20:51;275.02;;;102.38;;
70414;SDS011;57837;52.064;113.478;2023-02-15T17:23:57;335.77;;;125.18;;
70414;SDS011;57837;52.064;113.478;2023-02-15T17:27:05;195.77;;;77.60;;
70414;SDS011;57837;52.064;113.478;2023-02-15T17:30:15;280.02;;;106.28;;
70414;SDS011;57837;52.064;113.478;2023-02-15T17:33:26;304.67;;;105.90;;
70414;SDS011;57837;52.064;113.478;2023-02-15T17:36:39;143.73;;;57.35;;
70414;SDS011;57837;52.064;113.478;2023-02-15T17:40:05;220.73;;;92.05;;
70414;SDS011;57837;52.064;113.478;2023-02-15T17:43:19;238.40;;;94.75;;
70414;SDS011;57837;52.064;113.478;2023-02-15T17:46:22;438.95;;;168.93;;
70414;SDS011;57837;52.064;113.478;2023-02-15T17:49:26;224.93;;;85.80;;
70414;SDS011;57837;52.064;113.478;2023-02-15T17:52:36;405.20;;;157.27;;
70414;SDS011;57837;52.064;113.478;2023-02-15T17:55:40;241.60;;;96.80;;
70414;SDS011;57837;52.064;113.478;2023-02-15T17:58:46;413.67;;;151.97;;
70414;SDS011;57837;52.064;113.478;2023-02-15T18:01:49;276.70;;;115.32;;
70414;SDS011;57837;52.064;113.478;2023-02-15T18:05:14;329.98;;;121.43;;
70414;SDS011;57837;52.064;113.478;2023-02-15T18:08:36;440.50;;;159.40;;
70414;SDS011;57837;52.064;113.478;2023-02-15T18:11:58;317.63;;;128.95;;
70414;SDS011;57837;52.064;113.478;2023-02-15T18:15:01;366.33;;;131.48;;
70414;SDS011;57837;52.064;113.478;2023-02-15T18:18:07;248.88;;;103.63;;
70414;SDS011;57837;52.064;113.478;2023-02-15T18:21:13;308.40;;;114.93;;
70414;SDS011;57837;52.064;113.478;2023-02-15T18:24:19;450.70;;;172.38;;
70414;SDS011;57837;52.064;113.478;2023-02-15T18:27:25;257.73;;;104.35;;
70414;SDS011;57837;52.064;113.478;2023-02-15T18:30:29;393.50;;;148.27;;
70414;SDS011;57837;52.064;113.478;2023-02-15T18:33:34;471.13;;;176.13;;
70414;SDS011;57837;52.064;113.478;2023-02-15T18:36:42;297.33;;;117.38;;
70414;SDS011;57837;52.064;113.478;2023-02-15T18:39:47;211.60;;;93.03;;
70414;SDS011;57837;52.064;113.478;2023-02-15T18:42:52;238.35;;;96.30;;
70414;SDS011;57837;52.064;113.478;2023-02-15T18:45:55;361.05;;;130.30;;
70414;SDS011;57837;52.064;113.478;2023-02-15T18:48:58;214.00;;;88.65;;
70414;SDS011;57837;52.064;113.478;2023-02-15T18:52:02;366.00;;;134.43;;
70414;SDS011;57837;52.064;113.478;2023-02-15T18:58:22;270.10;;;95.95;;
70414;SDS011;57837;52.064;113.478;2023-02-15T19:01:26;132.20;;;50.87;;
70414;SDS011;57837;52.064;113.478;2023-02-15T19:04:30;145.98;;;51.20;;
70414;SDS011;57837;52.064;113.478;2023-02-15T19:07:34;167.60;;;57.42;;
70414;SDS011;57837;52.064;113.478;2023-02-15T19:10:39;157.43;;;63.42;;
70414;SDS011;57837;52.064;113.478;2023-02-15T19:13:42;97.50;;;36.60;;
70414;SDS011;57837;52.064;113.478;2023-02-15T19:16:46;89.07;;;49.63;;
70414;SDS011;57837;52.064;113.478;2023-02-15T19:19:49;127.43;;;43.15;;
70414;SDS011;57837;52.064;113.478;2023-02-15T19:22:54;78.53;;;34.50;;
70414;SDS011;57837;52.064;113.478;2023-02-15T19:25:59;166.70;;;59.88;;
70414;SDS011;57837;52.064;113.478;2023-02-15T19:29:03;85.15;;;31.15;;
70414;SDS011;57837;52.064;113.478;2023-02-15T19:32:08;84.20;;;36.27;;
70414;SDS011;57837;52.064;113.478;2023-02-15T19:35:16;61.05;;;30.58;;
70414;SDS011;57837;52.064;113.478;2023-02-15T19:38:28;122.05;;;43.35;;
70414;SDS011;57837;52.064;113.478;2023-02-15T19:41:36;202.45;;;68.90;;
70414;SDS011;57837;52.064;113.478;2023-02-15T19:44:41;225.52;;;84.95;;
70414;SDS011;57837;52.064;113.478;2023-02-15T19:47:44;169.07;;;66.78;;
70414;SDS011;57837;52.064;113.478;2023-02-15T19:50:49;133.15;;;49.70;;
70414;SDS011;57837;52.064;113.478;2023-02-15T19:53:54;82.20;;;33.40;;
70414;SDS011;57837;52.064;113.478;2023-02-15T19:56:59;224.18;;;76.80;;
70414;SDS011;57837;52.064;113.478;2023-02-15T20:00:08;63.35;;;32.55;;
70414;SDS011;57837;52.064;113.478;2023-02-15T20:03:23;156.40;;;59.50;;
70414;SDS011;57837;52.064;113.478;2023-02-15T20:06:26;95.72;;;32.10;;
70414;SDS011;57837;52.064;113.478;2023-02-15T20:09:31;112.47;;;43.65;;
70414;SDS011;57837;52.064;113.478;2023-02-15T20:12:37;147.15;;;55.38;;
70414;SDS011;57837;52.064;113.478;2023-02-15T20:15:41;167.35;;;59.65;;
70414;SDS011;57837;52.064;113.478;2023-02-15T20:18:45;89.00;;;33.88;;